Time;durP1;ratioP1;P1;durP2;ratioP2;P2;SDS_P1;SDS_P2;PMS_P1;PMS_P2;Temp;Humidity;BMP_temperature;BMP_pressure;BME280_temperature;BME280_humidity;BME280_pressure;Samples;Min_cycle;Max_cycle;Signal;HPM_P1;HPM_P2
2021/10/06 00:01:09;;;;;;;7.00;5.25;;;12.20;99.90;;;;;;5074335;28;20024;-85
2021/10/06 00:03:35;;;;;;;6.28;4.95;;;12.10;99.90;;;;;;5072190;28;20123;-85
2021/10/06 00:06:00;;;;;;;7.15;4.47;;;12.50;99.90;;;;;;5075251;28;20029;-85
2021/10/06 00:08:26;;;;;;;6.55;4.20;;;12.10;99.90;;;;;;5072110;28;20091;-85
2021/10/06 00:10:52;;;;;;;7.45;4.35;;;12.10;99.90;;;;;;5073973;28;20025;-85
2021/10/06 00:13:18;;;;;;;6.40;3.72;;;12.50;99.90;;;;;;5074849;28;20069;-85
2021/10/06 00:15:44;;;;;;;7.65;4.20;;;12.20;99.90;;;;;;5070459;28;20039;-85
2021/10/06 00:18:11;;;;;;;7.32;4.38;;;12.20;99.90;;;;;;5076443;28;20032;-85
2021/10/06 00:20:37;;;;;;;7.88;4.05;;;12.10;99.90;;;;;;5073890;28;20055;-85
2021/10/06 00:23:03;;;;;;;5.60;4.15;;;12.20;99.90;;;;;;5074774;28;20500;-85
2021/10/06 00:25:29;;;;;;;6.00;4.13;;;12.20;99.90;;;;;;5074044;28;20031;-85
2021/10/06 00:27:55;;;;;;;6.53;4.00;;;12.30;99.90;;;;;;5072191;28;20029;-85
2021/10/06 00:30:21;;;;;;;12.77;4.63;;;12.60;99.90;;;;;;5074782;28;20042;-85
2021/10/06 00:32:46;;;;;;;5.40;4.25;;;12.10;99.90;;;;;;5074811;28;20028;-85
2021/10/06 00:35:12;;;;;;;7.13;4.45;;;12.20;99.90;;;;;;5074079;28;20036;-85
2021/10/06 00:37:38;;;;;;;5.20;4.07;;;12.30;99.90;;;;;;5074110;28;20056;-85
2021/10/06 00:40:05;;;;;;;5.13;4.25;;;12.30;99.90;;;;;;5073421;28;20089;-85
2021/10/06 00:42:32;;;;;;;5.68;4.00;;;12.30;99.90;;;;;;5072607;28;20020;-85
2021/10/06 00:44:57;;;;;;;8.95;4.10;;;12.20;99.90;;;;;;5074611;28;20085;-85
2021/10/06 00:47:23;;;;;;;5.00;4.07;;;12.30;99.90;;;;;;5071062;28;20143;-84
2021/10/06 00:49:49;;;;;;;7.97;3.67;;;12.30;99.90;;;;;;5074503;28;20034;-85
2021/10/06 00:52:15;;;;;;;6.32;4.43;;;12.30;99.90;;;;;;5074398;28;20399;-85
2021/10/06 00:54:41;;;;;;;7.05;4.95;;;12.40;99.90;;;;;;5070055;28;20519;-85
2021/10/06 00:57:07;;;;;;;8.77;4.97;;;12.10;99.90;;;;;;5076665;28;20098;-85
2021/10/06 00:59:33;;;;;;;9.82;4.80;;;12.40;99.90;;;;;;5072409;28;20056;-85
2021/10/06 01:01:59;;;;;;;7.20;4.38;;;12.10;99.90;;;;;;5074001;28;20377;-85
2021/10/06 01:04:25;;;;;;;6.25;4.07;;;12.00;99.90;;;;;;5073937;28;20039;-85
2021/10/06 01:06:51;;;;;;;6.63;4.57;;;12.00;99.90;;;;;;5070930;28;20025;-85
2021/10/06 01:09:16;;;;;;;7.15;4.38;;;12.00;99.90;;;;;;5075205;28;20078;-85
2021/10/06 01:11:42;;;;;;;9.90;4.57;;;12.50;99.90;;;;;;5074440;28;20035;-86
2021/10/06 01:14:08;;;;;;;6.25;3.80;;;12.00;99.90;;;;;;5074057;28;20099;-85
2021/10/06 01:16:34;;;;;;;5.15;3.50;;;11.90;99.90;;;;;;5073860;28;20204;-85
2021/10/06 01:19:00;;;;;;;8.27;4.00;;;11.80;99.90;;;;;;5071610;28;20115;-85
2021/10/06 01:21:26;;;;;;;5.28;4.20;;;11.60;99.90;;;;;;5071620;28;20040;-85
2021/10/06 01:23:52;;;;;;;6.45;4.25;;;11.70;99.90;;;;;;5073242;28;20091;-85
2021/10/06 01:26:19;;;;;;;6.82;3.97;;;11.70;99.90;;;;;;5072252;28;20388;-86
2021/10/06 01:28:51;;;;;;;6.55;3.75;;;11.50;99.90;;;;;;5072433;28;20024;-85
2021/10/06 01:31:18;;;;;;;5.30;3.70;;;11.50;99.90;;;;;;5074217;28;20487;-85
2021/10/06 01:33:44;;;;;;;5.63;3.50;;;11.50;99.90;;;;;;5053742;28;20116;-85
2021/10/06 01:36:10;;;;;;;5.60;3.50;;;11.50;99.90;;;;;;5075969;28;20431;-85
2021/10/06 01:38:37;;;;;;;5.53;3.55;;;11.30;99.90;;;;;;5073920;28;20032;-85
2021/10/06 01:41:03;;;;;;;6.95;3.45;;;11.30;99.90;;;;;;5073957;28;20063;-85
2021/10/06 01:43:29;;;;;;;8.10;3.42;;;11.30;99.90;;;;;;5073492;28;20399;-86
2021/10/06 01:45:54;;;;;;;5.30;2.90;;;11.30;99.90;;;;;;5074259;28;20077;-86
2021/10/06 01:48:20;;;;;;;4.45;2.58;;;11.30;99.90;;;;;;5077934;28;20025;-85
2021/10/06 01:50:45;;;;;;;6.20;2.65;;;11.20;99.90;;;;;;5078371;28;20033;-85
2021/10/06 01:53:14;;;;;;;5.05;2.00;;;11.20;99.90;;;;;;5077609;28;20028;-85
2021/10/06 01:55:41;;;;;;;3.30;2.20;;;11.20;99.90;;;;;;5078015;28;20025;-84
2021/10/06 01:58:19;;;;;;;7.00;2.35;;;11.10;99.90;;;;;;5076540;28;20024;-86
2021/10/06 02:00:49;;;;;;;5.50;2.20;;;11.60;99.90;;;;;;5055617;28;20086;-85
2021/10/06 02:03:14;;;;;;;6.47;2.17;;;11.20;99.90;;;;;;5087597;28;20548;-85
2021/10/06 02:05:40;;;;;;;3.63;2.10;;;11.20;99.90;;;;;;5076613;28;20162;-85
2021/10/06 02:08:06;;;;;;;3.53;1.80;;;11.10;99.90;;;;;;5075990;28;20158;-85
2021/10/06 02:10:37;;;;;;;7.40;2.03;;;11.10;99.90;;;;;;5077629;28;20032;-85
2021/10/06 02:13:02;;;;;;;8.20;2.58;;;11.10;99.90;;;;;;5075467;28;20102;-85
2021/10/06 02:15:28;;;;;;;4.70;2.00;;;11.00;99.90;;;;;;5074891;28;20480;-85
2021/10/06 02:17:54;;;;;;;6.68;2.13;;;10.90;99.90;;;;;;5078571;28;20385;-85
2021/10/06 02:20:19;;;;;;;6.25;2.50;;;10.90;99.90;;;;;;5077079;28;20051;-85
2021/10/06 02:22:45;;;;;;;7.32;2.83;;;10.80;99.90;;;;;;5077514;28;20059;-85
2021/10/06 02:25:11;;;;;;;5.70;2.47;;;10.80;99.90;;;;;;5074744;28;20388;-85
2021/10/06 02:27:37;;;;;;;5.35;2.40;;;11.20;99.90;;;;;;5073181;28;20032;-85
2021/10/06 02:30:05;;;;;;;4.28;2.40;;;10.80;99.90;;;;;;5077422;28;20070;-85
2021/10/06 02:32:31;;;;;;;9.30;3.10;;;10.70;99.90;;;;;;5076866;28;20029;-85
2021/10/06 02:34:57;;;;;;;8.20;2.38;;;10.60;99.90;;;;;;5075483;28;20052;-85
2021/10/06 02:37:23;;;;;;;5.38;2.30;;;10.60;99.90;;;;;;5076541;28;20471;-85
2021/10/06 02:39:49;;;;;;;4.60;2.42;;;10.60;99.90;;;;;;5071707;28;20503;-85
2021/10/06 02:42:14;;;;;;;6.80;2.40;;;10.50;99.90;;;;;;5077413;28;20024;-85
2021/10/06 02:44:40;;;;;;;4.82;2.55;;;10.60;99.90;;;;;;5076156;28;20028;-85
2021/10/06 02:47:06;;;;;;;5.40;2.30;;;10.70;99.90;;;;;;5076961;28;20033;-85
2021/10/06 02:49:31;;;;;;;5.13;2.53;;;10.70;99.90;;;;;;5076455;28;20069;-85
2021/10/06 02:51:58;;;;;;;6.18;2.55;;;10.70;99.90;;;;;;5073741;28;20070;-85
2021/10/06 02:54:23;;;;;;;4.78;2.40;;;10.60;99.90;;;;;;5075895;28;20020;-85
2021/10/06 02:56:49;;;;;;;6.47;3.00;;;10.70;99.90;;;;;;5077569;28;20446;-85
2021/10/06 02:59:15;;;;;;;5.22;2.45;;;11.00;99.90;;;;;;5076201;28;20146;-85
2021/10/06 03:01:41;;;;;;;5.90;2.40;;;10.70;99.90;;;;;;5076512;28;20518;-85
2021/10/06 03:04:07;;;;;;;6.32;3.00;;;10.80;99.90;;;;;;5073758;28;20523;-85
2021/10/06 03:06:32;;;;;;;6.03;2.90;;;10.70;99.90;;;;;;5073342;28;20036;-85
2021/10/06 03:08:58;;;;;;;5.10;2.97;;;10.80;99.90;;;;;;5078595;28;20036;-85
2021/10/06 03:11:23;;;;;;;4.60;2.85;;;10.80;99.90;;;;;;5076125;28;20032;-85
2021/10/06 03:13:49;;;;;;;9.18;2.97;;;10.70;99.90;;;;;;5075801;28;20090;-85
2021/10/06 03:16:15;;;;;;;12.88;2.97;;;10.80;99.90;;;;;;5075718;28;20118;-85
2021/10/06 03:18:40;;;;;;;6.10;2.38;;;10.80;99.90;;;;;;5071783;28;20401;-85
2021/10/06 03:21:06;;;;;;;6.07;2.00;;;10.90;99.90;;;;;;5075809;28;20070;-85
2021/10/06 03:23:32;;;;;;;5.70;2.75;;;10.90;99.90;;;;;;5074342;28;20543;-85
2021/10/06 03:25:57;;;;;;;7.50;2.70;;;10.80;99.90;;;;;;5075976;28;20506;-85
2021/10/06 03:28:23;;;;;;;5.95;2.33;;;11.20;99.90;;;;;;5075767;28;20035;-85
2021/10/06 03:30:49;;;;;;;7.05;2.65;;;10.80;99.90;;;;;;5072146;28;20025;-85
2021/10/06 03:33:14;;;;;;;5.07;2.50;;;10.70;99.90;;;;;;5077463;28;20028;-85
2021/10/06 03:35:40;;;;;;;3.85;2.55;;;10.80;99.90;;;;;;5074304;28;20511;-85
2021/10/06 03:38:06;;;;;;;4.65;2.72;;;10.80;99.90;;;;;;5074853;28;20401;-84
2021/10/06 03:40:32;;;;;;;4.35;2.55;;;10.60;99.90;;;;;;5075581;28;20047;-85
2021/10/06 03:42:57;;;;;;;9.75;2.58;;;10.60;99.90;;;;;;5072510;28;20043;-86
2021/10/06 03:45:23;;;;;;;6.93;2.53;;;10.60;99.90;;;;;;5075086;28;20021;-86
2021/10/06 03:47:49;;;;;;;7.15;2.38;;;10.50;99.90;;;;;;5076170;28;20032;-85
2021/10/06 03:50:17;;;;;;;4.35;2.25;;;10.50;99.90;;;;;;5075506;28;20047;-85
2021/10/06 03:52:44;;;;;;;6.10;2.22;;;10.40;99.90;;;;;;5074326;28;20024;-85
2021/10/06 03:55:10;;;;;;;4.45;2.30;;;10.30;99.90;;;;;;5074155;28;20024;-85
2021/10/06 03:57:36;;;;;;;6.25;2.42;;;10.40;99.90;;;;;;5071897;28;20040;-85
2021/10/06 04:00:04;;;;;;;5.70;2.60;;;10.40;99.90;;;;;;5075676;28;20030;-84
2021/10/06 04:02:30;;;;;;;6.18;2.70;;;10.60;99.90;;;;;;5072377;28;20441;-85
2021/10/06 04:04:56;;;;;;;7.10;2.50;;;10.60;99.90;;;;;;5074867;28;20504;-85
2021/10/06 04:07:21;;;;;;;3.67;2.10;;;10.60;99.90;;;;;;5073212;28;20020;-85
2021/10/06 04:09:47;;;;;;;5.15;2.65;;;11.10;99.90;;;;;;5070753;28;20489;-85
2021/10/06 04:12:12;;;;;;;6.65;2.78;;;10.70;99.90;;;;;;5076631;28;20032;-85
2021/10/06 04:14:38;;;;;;;8.20;2.65;;;10.80;99.90;;;;;;5074349;28;20396;-85
2021/10/06 04:17:04;;;;;;;5.68;2.40;;;10.90;99.90;;;;;;5074600;28;20020;-85
2021/10/06 04:19:29;;;;;;;4.32;1.95;;;10.90;99.90;;;;;;5074510;28;20155;-85
2021/10/06 04:21:55;;;;;;;5.80;2.50;;;11.40;99.90;;;;;;5071714;28;20025;-85
2021/10/06 04:24:21;;;;;;;3.92;2.20;;;11.00;99.90;;;;;;5074736;28;20097;-86
2021/10/06 04:26:46;;;;;;;7.22;2.58;;;11.00;99.90;;;;;;5074781;28;20081;-85
2021/10/06 04:29:12;;;;;;;5.85;2.20;;;11.00;99.90;;;;;;5074064;28;20035;-85
2021/10/06 04:31:38;;;;;;;5.68;2.33;;;11.00;99.90;;;;;;5074369;28;20020;-85
2021/10/06 04:34:03;;;;;;;6.15;2.30;;;11.00;99.90;;;;;;5072521;28;20028;-85
2021/10/06 04:36:29;;;;;;;8.38;2.13;;;11.00;99.90;;;;;;5073362;28;20029;-86
2021/10/06 04:38:55;;;;;;;4.60;2.38;;;11.00;99.90;;;;;;5073261;28;20040;-85
2021/10/06 04:41:20;;;;;;;4.40;2.30;;;11.00;99.90;;;;;;5072850;28;20400;-85
2021/10/06 04:43:46;;;;;;;5.10;2.20;;;11.00;99.90;;;;;;5074141;28;20138;-85
2021/10/06 04:46:11;;;;;;;3.40;2.10;;;11.10;99.90;;;;;;5073232;28;20111;-85
2021/10/06 04:48:37;;;;;;;6.30;2.30;;;11.00;99.90;;;;;;5070807;28;20396;-85
2021/10/06 04:51:02;;;;;;;5.55;2.22;;;11.00;99.90;;;;;;5075781;28;20161;-85
2021/10/06 04:53:28;;;;;;;4.72;2.17;;;11.00;99.90;;;;;;5074183;28;20033;-85
2021/10/06 04:55:54;;;;;;;5.55;2.40;;;10.90;99.90;;;;;;5073592;28;20398;-86
2021/10/06 04:58:19;;;;;;;5.07;2.70;;;10.80;99.90;;;;;;5073327;28;20028;-85
2021/10/06 05:00:45;;;;;;;4.28;2.22;;;10.80;99.90;;;;;;5068768;28;20056;-85
2021/10/06 05:03:13;;;;;;;9.30;3.03;;;10.80;99.90;;;;;;5076130;28;20032;-85
2021/10/06 05:05:40;;;;;;;6.10;3.13;;;10.70;99.90;;;;;;5073883;28;20031;-87
2021/10/06 05:08:06;;;;;;;5.68;2.78;;;10.80;99.90;;;;;;5073578;28;20413;-84
2021/10/06 05:10:33;;;;;;;4.93;2.88;;;10.70;99.90;;;;;;5073512;28;20043;-83
2021/10/06 05:12:59;;;;;;;4.00;2.75;;;10.70;99.90;;;;;;5071096;28;20053;-83
2021/10/06 05:15:24;;;;;;;5.13;3.28;;;10.60;99.90;;;;;;5073652;28;20480;-84
2021/10/06 05:17:50;;;;;;;6.55;3.33;;;10.50;99.90;;;;;;5073309;28;20060;-83
2021/10/06 05:20:16;;;;;;;3.67;3.05;;;10.40;99.90;;;;;;5072750;28;20086;-84
2021/10/06 05:22:42;;;;;;;6.25;2.90;;;10.20;99.90;;;;;;5072565;28;20094;-83
2021/10/06 05:25:08;;;;;;;6.43;3.13;;;10.20;99.90;;;;;;5071887;28;20024;-83
2021/10/06 05:27:33;;;;;;;5.88;3.05;;;10.10;99.90;;;;;;5071171;28;20029;-84
2021/10/06 05:30:00;;;;;;;7.97;3.60;;;10.00;99.90;;;;;;5076161;28;20035;-82
2021/10/06 05:32:26;;;;;;;10.20;5.28;;;10.00;99.90;;;;;;5073674;28;20037;-82
2021/10/06 05:34:52;;;;;;;13.35;7.38;;;10.10;99.90;;;;;;5074344;28;20043;-82
2021/10/06 05:37:17;;;;;;;7.03;6.22;;;10.20;99.90;;;;;;5073590;28;20032;-82
2021/10/06 05:39:43;;;;;;;5.57;4.68;;;10.10;99.90;;;;;;5067377;28;20119;-82
2021/10/06 05:42:09;;;;;;;8.73;3.65;;;9.80;99.90;;;;;;5075813;28;20048;-82
2021/10/06 05:44:35;;;;;;;5.40;3.05;;;10.10;99.90;;;;;;5073662;28;20582;-83
2021/10/06 05:47:01;;;;;;;4.00;3.28;;;9.70;99.90;;;;;;5073955;28;20037;-82
2021/10/06 05:49:27;;;;;;;8.43;3.72;;;9.70;99.90;;;;;;5073855;28;20113;-81
2021/10/06 05:51:52;;;;;;;7.32;4.57;;;10.10;99.90;;;;;;5069756;28;20043;-81
2021/10/06 05:54:18;;;;;;;15.75;4.80;;;10.10;99.90;;;;;;5074264;28;20037;-81
2021/10/06 05:56:44;;;;;;;10.95;4.30;;;9.80;99.90;;;;;;5073329;28;20027;-81
2021/10/06 05:59:09;;;;;;;5.57;2.95;;;9.90;99.90;;;;;;5072065;28;20036;-81
2021/10/06 06:01:35;;;;;;;8.00;3.08;;;10.00;99.90;;;;;;5073509;28;20024;-81
2021/10/06 06:04:01;;;;;;;4.25;3.08;;;10.10;99.90;;;;;;5071358;28;20481;-81
2021/10/06 06:06:26;;;;;;;4.65;2.90;;;10.20;99.90;;;;;;5071933;28;20033;-81
2021/10/06 06:08:52;;;;;;;9.63;3.13;;;10.40;99.90;;;;;;5074525;28;20122;-81
2021/10/06 06:11:19;;;;;;;6.00;3.30;;;10.60;99.90;;;;;;5073365;28;20033;-81
2021/10/06 06:13:45;;;;;;;7.43;3.53;;;10.80;99.90;;;;;;5073770;28;20034;-81
2021/10/06 06:16:11;;;;;;;6.28;3.67;;;10.80;99.90;;;;;;5072275;28;20028;-83
2021/10/06 06:18:36;;;;;;;7.30;4.30;;;10.90;99.90;;;;;;5070045;28;20574;-83
2021/10/06 06:21:02;;;;;;;4.82;3.67;;;10.90;99.90;;;;;;5074984;28;20153;-83
2021/10/06 06:23:29;;;;;;;6.30;4.15;;;11.10;99.90;;;;;;5072661;28;20060;-83
2021/10/06 06:25:55;;;;;;;13.82;4.13;;;11.10;99.90;;;;;;5073602;28;20060;-83
2021/10/06 06:28:21;;;;;;;6.82;3.80;;;11.20;99.90;;;;;;5074513;28;20063;-82
2021/10/06 06:30:46;;;;;;;7.75;4.93;;;11.30;99.90;;;;;;5071420;28;20029;-82
2021/10/06 06:33:12;;;;;;;8.85;5.72;;;11.40;99.90;;;;;;5078882;28;20484;-82
2021/10/06 06:35:37;;;;;;;11.88;8.15;;;11.40;99.90;;;;;;5075128;28;20115;-82
2021/10/06 06:38:03;;;;;;;9.75;6.55;;;11.30;99.90;;;;;;5074971;28;20029;-82
2021/10/06 06:40:29;;;;;;;4.03;2.42;;;11.70;99.90;;;;;;5076999;28;20160;-82
2021/10/06 06:42:54;;;;;;;4.40;2.15;;;11.30;99.90;;;;;;5073610;28;20493;-82
2021/10/06 06:45:20;;;;;;;3.15;1.60;;;11.30;99.90;;;;;;5076587;28;20142;-82
2021/10/06 06:47:46;;;;;;;3.58;1.55;;;11.10;99.90;;;;;;5077494;28;20040;-82
2021/10/06 06:50:13;;;;;;;5.63;1.58;;;11.10;99.90;;;;;;5076222;28;20382;-82
2021/10/06 06:52:40;;;;;;;4.68;1.60;;;11.30;99.90;;;;;;5076272;28;20037;-82
2021/10/06 06:55:06;;;;;;;4.13;1.50;;;11.30;99.90;;;;;;5075088;28;20115;-82
2021/10/06 06:57:31;;;;;;;2.10;1.60;;;11.50;99.90;;;;;;5073590;28;20033;-82
2021/10/06 06:59:57;;;;;;;2.75;1.63;;;11.60;99.90;;;;;;5078842;28;20036;-82
2021/10/06 07:02:24;;;;;;;6.18;1.52;;;11.70;99.90;;;;;;5076217;28;20102;-83
2021/10/06 07:04:49;;;;;;;2.38;1.30;;;11.70;99.90;;;;;;5076430;28;20115;-82
2021/10/06 07:07:15;;;;;;;1.83;1.30;;;11.60;99.90;;;;;;5075481;28;20162;-82
2021/10/06 07:09:48;;;;;;;6.18;1.83;;;11.70;99.90;;;;;;5072129;28;20060;-82
2021/10/06 07:12:19;;;;;;;4.15;2.10;;;11.70;99.90;;;;;;5085868;28;20495;-82
2021/10/06 07:14:45;;;;;;;4.45;2.30;;;11.90;99.90;;;;;;5075334;28;20024;-82
2021/10/06 07:17:12;;;;;;;5.03;2.08;;;11.60;99.90;;;;;;5074536;28;20043;-82
2021/10/06 07:19:38;;;;;;;3.38;2.30;;;11.60;99.90;;;;;;5075733;28;20077;-82
2021/10/06 07:22:04;;;;;;;4.95;2.22;;;11.50;99.90;;;;;;5073824;28;20036;-82
2021/10/06 07:24:30;;;;;;;4.65;2.35;;;11.70;99.90;;;;;;5074162;28;20546;-82
2021/10/06 07:26:56;;;;;;;3.65;2.35;;;11.70;99.90;;;;;;5078067;28;20024;-82
2021/10/06 07:29:21;;;;;;;3.40;2.08;;;11.90;99.90;;;;;;5074491;28;20055;-82
2021/10/06 07:31:47;;;;;;;2.58;2.00;;;12.20;99.90;;;;;;5075916;28;20027;-82
2021/10/06 07:34:13;;;;;;;4.00;1.85;;;12.50;99.90;;;;;;5075053;28;20480;-82
2021/10/06 07:36:38;;;;;;;3.00;1.90;;;12.60;99.90;;;;;;5071846;28;20017;-82
2021/10/06 07:39:06;;;;;;;3.30;1.30;;;13.20;99.90;;;;;;5077702;28;20063;-82
2021/10/06 07:41:32;;;;;;;3.05;1.70;;;13.00;99.90;;;;;;5075452;28;20053;-82
2021/10/06 07:43:58;;;;;;;3.95;1.67;;;13.10;99.90;;;;;;5075937;28;20447;-82
2021/10/06 07:46:23;;;;;;;2.03;1.42;;;13.10;99.90;;;;;;5075297;28;20020;-82
2021/10/06 07:48:50;;;;;;;4.60;1.20;;;13.00;99.90;;;;;;5071108;28;20489;-82
2021/10/06 07:51:16;;;;;;;2.97;1.40;;;13.00;99.90;;;;;;5077290;28;20025;-82
2021/10/06 07:53:42;;;;;;;3.35;1.40;;;13.40;99.90;;;;;;5074161;28;20032;-82
2021/10/06 07:56:08;;;;;;;4.30;1.50;;;13.80;99.90;;;;;;5074085;28;20029;-83
2021/10/06 07:58:33;;;;;;;3.08;1.00;;;14.00;99.90;;;;;;5075325;28;20024;-83
2021/10/06 08:01:00;;;;;;;2.95;1.60;;;14.20;99.90;;;;;;5072755;28;20051;-83
2021/10/06 08:03:26;;;;;;;3.67;1.50;;;14.60;99.90;;;;;;5073838;28;20033;-83
2021/10/06 08:05:52;;;;;;;2.08;1.60;;;14.30;99.90;;;;;;5075969;28;20031;-83
2021/10/06 08:08:17;;;;;;;3.20;1.80;;;14.40;99.90;;;;;;5075540;28;20111;-83
2021/10/06 08:10:43;;;;;;;5.03;1.55;;;14.50;99.90;;;;;;5075005;28;20542;-83
2021/10/06 08:13:09;;;;;;;2.90;1.75;;;15.50;99.90;;;;;;5073923;28;20020;-83
2021/10/06 08:15:35;;;;;;;4.18;1.70;;;18.50;99.90;;;;;;5072116;28;20393;-83
2021/10/06 08:18:03;;;;;;;4.43;1.70;;;24.30;99.90;;;;;;5076509;28;20115;-83
2021/10/06 08:20:32;;;;;;;10.70;2.72;;;26.90;99.90;;;;;;5074899;28;20078;-83
2021/10/06 08:23:03;;;;;;;4.72;1.90;;;25.40;99.90;;;;;;5074842;28;20049;-83
2021/10/06 08:25:29;;;;;;;6.97;2.40;;;21.00;99.90;;;;;;5074824;28;20046;-83
2021/10/06 08:27:54;;;;;;;10.43;2.55;;;19.60;99.90;;;;;;5071330;28;20032;-84
2021/10/06 08:30:21;;;;;;;6.50;1.98;;;25.30;99.90;;;;;;5075468;28;20588;-84
2021/10/06 08:32:47;;;;;;;3.38;1.95;;;28.60;99.90;;;;;;5073835;28;20028;-83
2021/10/06 08:35:12;;;;;;;7.22;2.47;;;30.00;99.90;;;;;;5072928;28;20033;-83
2021/10/06 08:37:38;;;;;;;3.80;2.08;;;31.10;99.90;;;;;;5074333;28;20031;-83
2021/10/06 08:40:05;;;;;;;6.93;1.67;;;30.70;99.90;;;;;;5072625;28;20032;-84
2021/10/06 08:42:31;;;;;;;2.88;1.70;;;30.70;99.90;;;;;;5072102;28;20420;-84
2021/10/06 08:45:00;;;;;;;4.80;2.00;;;31.30;99.90;;;;;;5074386;28;20034;-84
2021/10/06 08:47:26;;;;;;;4.07;2.08;;;31.50;99.90;;;;;;5073924;28;20107;-84
2021/10/06 08:49:52;;;;;;;3.72;1.83;;;32.50;99.90;;;;;;5074587;28;20103;-84
2021/10/06 08:52:17;;;;;;;4.85;1.73;;;31.80;99.90;;;;;;5074607;28;20024;-84
2021/10/06 08:54:43;;;;;;;3.55;1.55;;;32.60;99.90;;;;;;5069913;28;20024;-84
2021/10/06 08:57:16;;;;;;;3.17;1.35;;;33.00;99.90;;;;;;5076184;28;20033;-84
2021/10/06 08:59:42;;;;;;;3.13;1.40;;;34.00;99.90;;;;;;5074198;28;20032;-84
2021/10/06 09:02:15;;;;;;;3.35;1.60;;;33.00;99.90;;;;;;5072305;28;20033;-85
2021/10/06 09:04:42;;;;;;;3.92;1.92;;;30.40;99.90;;;;;;5073968;28;20496;-84
2021/10/06 09:07:08;;;;;;;3.20;1.40;;;28.70;99.90;;;;;;5072883;28;20035;-84
2021/10/06 09:09:36;;;;;;;3.33;1.50;;;26.10;99.90;;;;;;5072021;28;20119;-84
2021/10/06 09:12:08;;;;;;;2.42;1.30;;;24.90;99.90;;;;;;5074684;28;20092;-84
2021/10/06 09:14:42;;;;;;;2.35;1.48;;;24.00;99.90;;;;;;5072914;28;20025;-83
2021/10/06 09:17:19;;;;;;;3.45;1.35;;;21.90;99.90;;;;;;5073395;28;20518;-83
2021/10/06 09:19:47;;;;;;;4.15;1.30;;;19.30;99.90;;;;;;5073924;28;20032;-83
2021/10/06 09:22:16;;;;;;;4.65;1.55;;;18.00;99.90;;;;;;5073223;28;20069;-83
2021/10/06 09:24:54;;;;;;;4.20;1.70;;;18.00;99.90;;;;;;5070055;28;20072;-83
2021/10/06 09:27:26;;;;;;;3.25;1.58;;;18.00;99.90;;;;;;5083721;28;20085;-83
2021/10/06 09:29:55;;;;;;;3.90;2.28;;;18.00;99.90;;;;;;5074795;28;20025;-83
2021/10/06 09:32:34;;;;;;;7.63;1.73;;;18.70;99.90;;;;;;5073666;28;20032;-83
2021/10/06 09:35:09;;;;;;;3.13;1.55;;;21.90;99.90;;;;;;5074505;28;20031;-83
2021/10/06 09:37:40;;;;;;;7.55;3.40;;;21.40;99.90;;;;;;5073684;28;20024;-83
2021/10/06 09:40:08;;;;;;;3.70;1.25;;;25.60;99.90;;;;;;5071954;28;20388;-83
2021/10/06 09:42:44;;;;;;;3.83;1.35;;;26.80;99.90;;;;;;5070998;28;20082;-83
2021/10/06 09:45:10;;;;;;;3.33;1.30;;;30.90;99.90;;;;;;5075243;28;20033;-84
2021/10/06 09:47:37;;;;;;;3.85;1.70;;;31.90;99.90;;;;;;5073891;28;20481;-83
2021/10/06 09:50:03;;;;;;;3.20;1.50;;;31.90;99.90;;;;;;5072186;28;20115;-84
2021/10/06 09:52:32;;;;;;;3.15;1.20;;;26.50;99.90;;;;;;5072459;28;20020;-84
2021/10/06 09:55:06;;;;;;;2.78;1.20;;;24.70;99.90;;;;;;5070657;28;20055;-83
2021/10/06 09:57:39;;;;;;;4.07;1.20;;;29.70;99.90;;;;;;5070973;28;20044;-84
2021/10/06 10:00:10;;;;;;;4.13;1.15;;;27.10;99.90;;;;;;5075081;28;20051;-84
2021/10/06 10:02:36;;;;;;;3.40;1.15;;;26.50;99.90;;;;;;5073528;28;20101;-84
2021/10/06 10:05:04;;;;;;;3.63;1.10;;;23.90;99.90;;;;;;5074533;28;20040;-84
2021/10/06 10:07:30;;;;;;;4.32;1.20;;;21.40;99.90;;;;;;5077355;28;20020;-83
2021/10/06 10:09:56;;;;;;;3.63;1.33;;;19.90;99.90;;;;;;5074248;28;20081;-84
2021/10/06 10:12:24;;;;;;;3.80;1.38;;;19.50;99.90;;;;;;5077612;28;20519;-83
2021/10/06 10:14:52;;;;;;;3.60;1.40;;;18.40;99.90;;;;;;5077718;28;20119;-82
2021/10/06 10:17:18;;;;;;;3.88;1.20;;;18.30;99.90;;;;;;5077322;28;20033;-83
2021/10/06 10:19:46;;;;;;;5.10;1.23;;;18.30;99.90;;;;;;5077030;28;20397;-83
2021/10/06 10:22:13;;;;;;;2.88;1.20;;;19.00;99.90;;;;;;5075952;28;20049;-83
2021/10/06 10:24:47;;;;;;;4.18;1.13;;;20.10;99.90;;;;;;5073288;28;20079;-84
2021/10/06 10:27:15;;;;;;;4.43;1.20;;;23.30;99.90;;;;;;5086080;28;20024;-84
2021/10/06 10:29:50;;;;;;;6.30;1.20;;;23.00;99.90;;;;;;5073902;28;20366;-83
2021/10/06 10:32:23;;;;;;;5.60;1.20;;;22.70;99.90;;;;;;5075540;28;20028;-83
2021/10/06 10:35:11;;;;;;;2.78;1.10;;;21.40;99.90;;;;;;5076976;28;20058;-83
2021/10/06 10:40:30;;;;;;;5.22;1.52;;;18.30;99.90;;;;;;5076071;28;20024;-83
2021/10/06 10:43:06;;;;;;;4.38;1.35;;;17.90;99.90;;;;;;5058862;28;20115;-83
2021/10/06 10:45:40;;;;;;;6.78;1.80;;;19.00;99.90;;;;;;5073796;28;20476;-83
2021/10/06 10:48:08;;;;;;;3.83;1.20;;;19.40;99.90;;;;;;5079062;28;20017;-83
2021/10/06 10:50:56;;;;;;;5.82;1.27;;;21.50;99.90;;;;;;5076679;28;20531;-84
2021/10/06 10:53:51;;;;;;;3.85;1.10;;;21.00;99.90;;;;;;5076719;28;20040;-83
2021/10/06 10:56:42;;;;;;;5.10;1.60;;;21.30;99.90;;;;;;5076634;28;20025;-83
2021/10/06 10:59:22;;;;;;;4.30;1.40;;;21.60;99.90;;;;;;5076706;28;20036;-84
2021/10/06 11:01:51;;;;;;;4.53;1.30;;;22.30;99.90;;;;;;5076507;28;20115;-84
2021/10/06 11:04:19;;;;;;;3.40;1.20;;;27.00;99.90;;;;;;5076873;28;20617;-83
2021/10/06 11:06:54;;;;;;;6.55;1.55;;;27.50;99.90;;;;;;5054895;28;20024;-83
2021/10/06 11:09:31;;;;;;;5.10;1.52;;;25.40;99.90;;;;;;5086660;28;20028;-83
2021/10/06 11:12:06;;;;;;;3.42;1.05;;;22.40;99.90;;;;;;5076009;28;20024;-84
2021/10/06 11:14:37;;;;;;;4.20;1.10;;;21.20;99.90;;;;;;5077050;28;20174;-84
2021/10/06 11:17:03;;;;;;;4.20;1.20;;;21.00;99.90;;;;;;5075834;28;20111;-83
2021/10/06 11:19:50;;;;;;;4.55;1.58;;;20.20;99.90;;;;;;5075970;28;20035;-83
2021/10/06 11:22:21;;;;;;;4.28;1.55;;;19.40;99.90;;;;;;5075494;28;20040;-83
2021/10/06 11:24:55;;;;;;;4.53;1.48;;;19.30;99.90;;;;;;5053323;28;20412;-83
2021/10/06 11:27:22;;;;;;;4.18;1.60;;;23.50;99.90;;;;;;5075630;28;20081;-84
2021/10/06 11:29:49;;;;;;;5.32;2.17;;;27.10;99.90;;;;;;5076834;28;20574;-84
2021/10/06 11:32:16;;;;;;;3.97;1.20;;;32.20;99.90;;;;;;5075823;28;20052;-83
2021/10/06 11:34:46;;;;;;;5.25;1.95;;;30.90;99.90;;;;;;5076132;28;20043;-84
2021/10/06 11:37:23;;;;;;;13.77;5.78;;;25.40;99.90;;;;;;5074817;28;20031;-84
2021/10/06 11:39:50;;;;;;;6.65;2.20;;;22.10;99.90;;;;;;5056127;28;20033;-84
2021/10/06 11:42:17;;;;;;;5.32;1.40;;;20.70;99.90;;;;;;5077098;28;20081;-84
2021/10/06 11:44:44;;;;;;;4.60;1.90;;;19.90;99.90;;;;;;5076383;28;20028;-83
2021/10/06 11:47:14;;;;;;;5.10;2.03;;;19.40;99.90;;;;;;5074146;28;20052;-83
2021/10/06 11:49:42;;;;;;;5.22;2.33;;;18.50;99.90;;;;;;5073944;28;20020;-83
2021/10/06 11:52:13;;;;;;;3.47;1.33;;;17.70;99.90;;;;;;5073913;28;20488;-83
2021/10/06 11:54:39;;;;;;;2.60;1.10;;;17.00;99.90;;;;;;5071415;28;20025;-83
2021/10/06 11:57:13;;;;;;;1.15;0.77;;;16.60;99.90;;;;;;5077168;28;20024;-83
2021/10/06 11:59:41;;;;;;;3.53;1.05;;;16.70;99.90;;;;;;5075489;28;20441;-83
2021/10/06 12:02:09;;;;;;;2.85;1.20;;;16.90;99.90;;;;;;5075166;28;20041;-83
2021/10/06 12:04:37;;;;;;;2.00;0.80;;;17.80;99.90;;;;;;5075675;28;20035;-83
2021/10/06 12:07:03;;;;;;;2.22;0.60;;;18.70;99.90;;;;;;5072926;28;20107;-83
2021/10/06 12:09:48;;;;;;;1.80;0.70;;;18.30;99.90;;;;;;5072776;28;20055;-83
2021/10/06 12:12:30;;;;;;;2.60;0.60;;;17.70;99.90;;;;;;5076746;28;20036;-83
2021/10/06 12:15:04;;;;;;;2.17;0.95;;;17.20;99.90;;;;;;5074996;28;20408;-83
2021/10/06 12:17:42;;;;;;;4.50;1.08;;;17.10;99.90;;;;;;5075041;28;20024;-83
2021/10/06 12:20:19;;;;;;;4.57;1.00;;;17.40;99.90;;;;;;5075025;28;20038;-83
2021/10/06 12:22:46;;;;;;;3.42;1.00;;;18.60;99.90;;;;;;5074987;28;20059;-84
2021/10/06 12:25:24;;;;;;;2.55;1.10;;;26.80;99.90;;;;;;5072038;28;20031;-84
2021/10/06 12:28:06;;;;;;;3.78;1.23;;;30.90;99.90;;;;;;5052994;28;20583;-84
2021/10/06 12:30:35;;;;;;;2.15;0.90;;;28.40;99.90;;;;;;5072058;28;20480;-84
2021/10/06 12:33:08;;;;;;;3.28;1.30;;;23.80;99.90;;;;;;5077549;28;20070;-84
2021/10/06 12:35:42;;;;;;;2.65;1.10;;;24.60;99.90;;;;;;5074628;28;20035;-84
2021/10/06 12:38:08;;;;;;;3.60;1.40;;;28.80;99.90;;;;;;5074129;28;20078;-84
2021/10/06 12:40:36;;;;;;;6.95;1.60;;;31.50;99.90;;;;;;5074246;28;20024;-84
2021/10/06 12:43:27;;;;;;;10.40;1.70;;;31.60;99.90;;;;;;5072938;28;20097;-83
2021/10/06 12:46:06;;;;;;;3.80;1.65;;;29.60;99.90;;;;;;5055425;28;20020;-83
2021/10/06 12:48:53;;;;;;;3.05;1.05;;;31.60;99.90;;;;;;5072183;28;20544;-83
2021/10/06 12:51:24;;;;;;;2.97;1.00;;;32.10;99.90;;;;;;5077624;28;20032;-84